createdAt,value
2022-08-01T00:06:40.039Z,8.00
2022-08-01T00:16:42.953Z,6.27
2022-08-01T00:26:44.423Z,7.23
2022-08-01T00:36:45.987Z,7.80
2022-08-01T00:46:47.503Z,11.03
2022-08-01T00:56:49.057Z,12.07
2022-08-01T01:07:02.497Z,10.10
2022-08-01T01:17:08.726Z,14.53
2022-08-01T01:27:26.081Z,16.23
2022-08-01T01:37:30.695Z,13.40
2022-08-01T01:47:33.543Z,10.30
2022-08-01T01:57:41.464Z,10.03
2022-08-01T02:07:44.261Z,9.40
2022-08-01T02:17:49.639Z,11.53
2022-08-01T02:28:05.490Z,6.40
2022-08-01T02:38:10.815Z,6.03
2022-08-01T02:48:14.996Z,6.37
2022-08-01T02:58:19.550Z,6.40
2022-08-01T03:08:22.694Z,5.93
2022-08-01T03:18:27.155Z,5.90
2022-08-01T03:28:30.749Z,6.30
2022-08-01T03:38:39.013Z,6.20
2022-08-01T03:48:47.112Z,6.50
2022-08-01T03:58:50.437Z,6.10
2022-08-01T04:08:58.180Z,6.57
2022-08-01T04:18:59.657Z,6.87
2022-08-01T04:29:03.660Z,6.40
2022-08-01T04:39:06.942Z,5.97
2022-08-01T04:49:10.199Z,5.77
2022-08-01T04:59:30.297Z,5.63
2022-08-01T05:09:32.546Z,6.50
2022-08-01T05:19:36.357Z,7.30
2022-08-01T05:29:44.008Z,5.20
2022-08-01T05:39:46.179Z,4.97
2022-08-01T05:49:47.742Z,4.93
2022-08-01T05:59:49.232Z,4.77
2022-08-01T06:09:51.060Z,4.10
2022-08-01T06:19:52.681Z,3.80
2022-08-01T06:29:54.535Z,3.77
2022-08-01T06:39:56.131Z,3.97
2022-08-01T06:49:57.701Z,5.13
2022-08-01T07:00:03.459Z,4.15
2022-08-01T07:10:05.690Z,2.50
2022-08-01T07:20:11.987Z,2.30
2022-08-01T07:30:15.549Z,2.28
2022-08-01T07:40:18.722Z,2.15
2022-08-01T07:50:20.354Z,1.98
2022-08-01T08:00:21.936Z,2.20
2022-08-01T08:10:23.528Z,3.58
2022-08-01T08:20:30.078Z,2.80
2022-08-01T08:30:32.442Z,2.95
2022-08-01T08:40:36.181Z,2.60
2022-08-01T08:50:42.461Z,5.53
2022-08-01T09:00:44.195Z,3.00
2022-08-01T09:10:48.834Z,2.67
2022-08-01T09:20:51.591Z,3.33
2022-08-01T09:30:53.165Z,3.20
2022-08-01T09:40:58.398Z,5.43
2022-08-01T09:51:04.272Z,3.67
2022-08-01T10:01:08.674Z,1.38
2022-08-01T10:11:12.793Z,1.48
2022-08-01T10:21:14.471Z,1.60
2022-08-01T10:31:18.842Z,1.30
2022-08-01T10:41:21.925Z,1.38
2022-08-01T10:51:51.166Z,1.20
2022-08-01T11:01:58.623Z,2.75
2022-08-01T11:12:13.557Z,2.72
2022-08-01T11:22:25.532Z,1.85
2022-08-01T11:32:28.350Z,2.00
2022-08-01T11:42:30.038Z,2.90
2022-08-01T11:52:37.022Z,2.80
2022-08-01T12:02:39.146Z,2.53
2022-08-01T12:12:46.250Z,2.20
2022-08-01T12:22:48.326Z,1.75
2022-08-01T12:32:50.953Z,1.95
2022-08-01T12:42:55.012Z,2.70
2022-08-01T12:52:58.075Z,2.53
2022-08-01T13:03:16.580Z,2.17
2022-08-01T13:13:27.900Z,1.60
2022-08-01T13:24:03.269Z,2.90
2022-08-01T13:33:54.051Z,2.88
2022-08-01T13:44:01.980Z,1.60
2022-08-01T13:54:04.609Z,2.42
2022-08-01T14:04:06.210Z,2.15
2022-08-01T14:14:08.316Z,1.77
2022-08-01T14:24:10.618Z,1.88
2022-08-01T14:34:13.886Z,4.40
2022-08-01T14:44:15.441Z,1.50
2022-08-01T14:54:16.973Z,1.58
2022-08-01T15:04:28.998Z,1.70
2022-08-01T15:14:48.705Z,1.73
2022-08-01T15:24:56.829Z,2.10
2022-08-01T15:34:58.902Z,3.28
2022-08-01T15:45:00.536Z,2.90
2022-08-01T15:55:02.411Z,3.00
2022-08-01T16:05:04.068Z,3.10
2022-08-01T16:15:06.185Z,1.83
2022-08-01T16:25:08.109Z,2.70
2022-08-01T16:35:09.620Z,2.70
2022-08-01T16:45:13.696Z,2.60
2022-08-01T16:55:15.630Z,2.20
2022-08-01T17:05:17.201Z,2.50
2022-08-01T17:15:18.869Z,3.53
2022-08-01T17:25:21.662Z,2.70
2022-08-01T17:35:23.127Z,2.83
2022-08-01T17:45:27.497Z,2.30
2022-08-01T17:55:53.683Z,2.67
2022-08-01T18:05:53.179Z,3.30
2022-08-01T18:15:54.758Z,2.70
2022-08-01T18:26:01.313Z,3.13
2022-08-01T18:36:04.535Z,2.80
2022-08-01T18:46:06.448Z,3.03
2022-08-01T18:56:11.835Z,3.67
2022-08-01T19:06:13.625Z,3.27
2022-08-01T19:16:16.585Z,3.50
2022-08-01T19:26:21.212Z,3.03
2022-08-01T19:36:23.290Z,3.57
2022-08-01T19:46:25.109Z,3.30
2022-08-01T19:56:28.021Z,4.73
2022-08-01T20:06:29.565Z,2.67
2022-08-01T20:16:32.941Z,9.70
2022-08-01T20:26:35.902Z,3.30
2022-08-01T20:36:37.842Z,3.30
2022-08-01T20:46:40.521Z,3.67
2022-08-01T20:56:50.670Z,3.30
2022-08-01T21:07:06.825Z,3.07
2022-08-01T21:17:17.393Z,2.93
2022-08-01T21:27:21.097Z,3.13
2022-08-01T21:37:37.300Z,3.20
2022-08-01T21:47:40.157Z,3.10
2022-08-01T21:57:59.941Z,4.03
2022-08-01T22:08:03.526Z,4.17
2022-08-01T22:18:05.264Z,3.73
2022-08-01T22:28:09.919Z,3.90
2022-08-01T22:38:11.706Z,3.90
2022-08-01T22:48:34.843Z,4.23
2022-08-01T22:58:39.035Z,4.23
2022-08-01T23:08:41.296Z,4.00
2022-08-01T23:18:46.186Z,4.40
2022-08-01T23:28:48.038Z,5.13
2022-08-01T23:38:49.610Z,4.90
2022-08-01T23:48:51.163Z,5.90
2022-08-01T23:58:52.793Z,6.53
